Time;durP1;ratioP1;P1;durP2;ratioP2;P2;SDS_P1;SDS_P2;PMS_P1;PMS_P2;Temp;Humidity;BMP_temperature;BMP_pressure;BME280_temperature;BME280_humidity;BME280_pressure;Samples;Min_cycle;Max_cycle;Signal;HPM_P1;HPM_P2
2022/12/28 00:02:05;;;;;;;7.07;2.10;;;;;;;5.45;51.02;99892.38;4328010;33;20166;-84
2022/12/28 00:04:30;;;;;;;8.30;2.20;;;;;;;5.97;49.87;99874.94;4328186;33;20088;-83
2022/12/28 00:06:56;;;;;;;8.48;1.98;;;;;;;6.18;49.41;99871.06;4329053;33;20502;-85
2022/12/28 00:09:21;;;;;;;8.70;2.12;;;;;;;6.36;49.15;99865.47;4304016;33;20107;-86
2022/12/28 00:11:47;;;;;;;8.20;2.10;;;;;;;6.43;49.09;99871.44;4330182;33;20091;-84
2022/12/28 00:14:12;;;;;;;8.25;2.00;;;;;;;6.47;49.00;99873.97;4328845;33;20110;-85
2022/12/28 00:16:40;;;;;;;8.02;2.12;;;;;;;6.46;49.08;99868.78;4315262;33;20135;-85
2022/12/28 00:19:14;;;;;;;8.73;2.40;;;;;;;6.54;49.15;99869.47;4330060;33;20403;-86
2022/12/28 00:21:39;;;;;;;8.10;2.70;;;;;;;6.57;49.04;99879.03;4328950;33;20121;-85
2022/12/28 00:24:06;;;;;;;7.68;2.28;;;;;;;6.51;49.18;99877.41;4320052;33;20385;-85
2022/12/28 00:26:33;;;;;;;8.40;2.08;;;;;;;6.46;49.23;99882.72;4317954;33;20129;-85
2022/12/28 00:28:59;;;;;;;9.15;2.22;;;;;;;6.49;49.21;99872.19;4329946;33;20112;-89
2022/12/28 00:31:24;;;;;;;8.98;2.35;;;;;;;6.48;49.15;99874.84;4331214;33;20080;-90
2022/12/28 00:33:50;;;;;;;8.85;2.40;;;;;;;6.48;49.27;99875.69;4331226;33;20513;-83
2022/12/28 00:36:15;;;;;;;8.27;2.20;;;;;;;6.36;49.50;99868.09;4331764;33;20088;-80
2022/12/28 00:38:42;;;;;;;9.82;2.60;;;;;;;6.38;49.35;99870.69;4330748;33;20127;-79
2022/12/28 00:41:08;;;;;;;9.30;2.37;;;;;;;6.09;49.84;99879.97;4324528;33;20129;-80
2022/12/28 00:43:33;;;;;;;7.15;2.15;;;;;;;5.76;50.75;99871.81;4333045;33;20133;-88
2022/12/28 00:45:59;;;;;;;8.77;2.30;;;;;;;5.65;51.26;99877.22;4331933;33;20437;-82
2022/12/28 00:48:24;;;;;;;9.55;2.30;;;;;;;5.78;50.93;99875.25;4317518;33;20135;-85
2022/12/28 00:50:50;;;;;;;8.93;2.17;;;;;;;5.38;52.18;99878.53;4330582;33;20159;-84
2022/12/28 00:53:15;;;;;;;8.85;2.60;;;;;;;5.64;51.49;99883.34;4329133;33;20115;-85
2022/12/28 00:55:41;;;;;;;9.30;2.55;;;;;;;5.19;52.79;99893.63;4317189;33;20100;-86
2022/12/28 00:58:07;;;;;;;11.12;2.40;;;;;;;5.28;52.42;99897.84;4332199;33;20096;-87
2022/12/28 01:00:33;;;;;;;9.38;2.83;;;;;;;4.76;53.47;99912.50;4318207;33;20393;-90
2022/12/28 01:02:59;;;;;;;7.03;2.12;;;;;;;5.39;52.35;99913.34;4333107;33;20091;-90
2022/12/28 01:05:25;;;;;;;8.15;2.10;;;;;;;5.72;51.37;99910.22;4330385;33;20130;-90
2022/12/28 01:07:50;;;;;;;8.70;2.20;;;;;;;5.95;50.87;99901.16;4320273;33;20120;-90
2022/12/28 01:10:16;;;;;;;9.48;2.50;;;;;;;5.97;50.80;99899.38;4331913;33;20110;-91
2022/12/28 01:12:42;;;;;;;8.48;2.10;;;;;;;5.89;51.19;99899.47;4333274;33;20106;-91
2022/12/28 01:15:09;;;;;;;9.55;2.20;;;;;;;5.93;51.19;99897.66;4333795;33;20441;-90
2022/12/28 01:17:34;;;;;;;11.75;2.28;;;;;;;5.74;51.80;99907.56;4318197;33;20122;-90
2022/12/28 01:20:00;;;;;;;7.12;2.40;;;;;;;5.94;51.20;99902.00;4332296;33;20096;-91
2022/12/28 01:22:26;;;;;;;6.85;1.92;;;;;;;6.01;51.11;99903.66;4320100;33;20092;-91
2022/12/28 01:24:52;;;;;;;7.25;1.80;;;;;;;5.98;51.40;99910.69;4331870;33;20103;-91
2022/12/28 01:27:18;;;;;;;7.47;2.10;;;;;;;6.14;50.94;99904.25;4333523;33;20163;-91
2022/12/28 01:29:43;;;;;;;7.03;2.08;;;;;;;6.02;51.33;99905.34;4330285;33;20446;-88
2022/12/28 01:32:09;;;;;;;8.98;2.28;;;;;;;6.05;51.15;99905.31;4318293;33;20092;-89
2022/12/28 01:34:34;;;;;;;9.63;2.35;;;;;;;5.86;51.71;99903.88;4333460;33;20152;-92
2022/12/28 01:36:59;;;;;;;8.48;2.20;;;;;;;6.20;50.78;99898.94;4332123;33;20130;-90
2022/12/28 01:39:25;;;;;;;7.65;2.10;;;;;;;6.29;50.75;99890.03;4333167;33;20490;-91
2022/12/28 01:41:50;;;;;;;8.80;2.28;;;;;;;6.40;50.59;99889.84;4332857;33;20095;-89
2022/12/28 01:44:15;;;;;;;7.72;2.40;;;;;;;6.05;51.56;99892.22;4330844;33;20123;-90
2022/12/28 01:47:09;;;;;;;9.05;2.20;;;;;;;6.37;50.76;99887.28;4333932;33;20439;-91
2022/12/28 01:49:37;;;;;;;8.45;2.47;;;;;;;6.05;51.47;99883.53;4332758;33;20110;-88
2022/12/28 01:52:12;;;;;;;8.48;2.17;;;;;;;6.45;50.49;99882.75;4350157;33;20099;-90
2022/12/28 01:54:44;;;;;;;7.82;2.10;;;;;;;6.43;50.46;99877.56;4350160;33;20104;-90
2022/12/28 01:57:10;;;;;;;9.10;2.72;;;;;;;5.91;51.91;99875.91;4350045;33;20128;-87
2022/12/28 01:59:40;;;;;;;11.45;3.15;;;;;;;6.13;51.28;99872.94;4336575;33;20146;-90
2022/12/28 02:02:06;;;;;;;9.27;2.80;;;;;;;6.26;50.90;99871.81;4350045;33;20102;-90
2022/12/28 02:04:31;;;;;;;7.62;2.40;;;;;;;6.35;50.69;99875.97;4348894;33;20475;-89
2022/12/28 02:06:57;;;;;;;10.52;3.05;;;;;;;6.39;50.42;99875.00;4350015;33;20087;-89
2022/12/28 02:09:29;;;;;;;8.90;2.35;;;;;;;6.52;50.04;99873.03;4349961;33;20364;-89
2022/12/28 02:11:54;;;;;;;8.57;2.40;;;;;;;6.46;50.11;99866.16;4336537;33;20097;-89
2022/12/28 02:14:20;;;;;;;9.88;2.80;;;;;;;6.36;50.45;99868.09;4349198;33;20376;-87
2022/12/28 02:16:46;;;;;;;8.95;2.67;;;;;;;6.34;50.46;99872.50;4336562;33;20137;-88
2022/12/28 02:19:15;;;;;;;8.48;2.97;;;;;;;6.20;50.37;99879.75;4349937;33;20146;-90
2022/12/28 02:22:09;;;;;;;8.68;2.90;;;;;;;5.41;52.65;99882.81;4348856;33;20491;-91
2022/12/28 02:24:34;;;;;;;10.85;3.22;;;;;;;5.48;52.47;99895.78;4350068;33;20091;-92
2022/12/28 02:27:16;;;;;;;9.32;3.00;;;;;;;5.29;53.01;99894.34;4349908;33;20142;-90
2022/12/28 02:29:45;;;;;;;11.90;3.00;;;;;;;5.47;52.69;99895.81;4348881;33;20764;-91
2022/12/28 02:32:28;;;;;;;9.30;2.67;;;;;;;5.58;52.14;99885.19;4349793;33;20087;-91
2022/12/28 02:35:06;;;;;;;9.93;3.12;;;;;;;5.65;52.20;99892.88;4336621;33;20462;-91
2022/12/28 02:38:08;;;;;;;10.10;3.00;;;;;;;5.82;51.70;99879.53;4350034;33;20099;-91
2022/12/28 02:40:42;;;;;;;9.65;2.90;;;;;;;5.37;52.80;99889.00;4341703;33;20125;-90
2022/12/28 02:43:07;;;;;;;10.27;3.10;;;;;;;5.42;52.58;99888.03;4348747;33;20444;-89
2022/12/28 02:51:13;;;;;;;9.90;3.00;;;;;;;5.78;52.07;99884.84;4349921;33;20118;-92
2022/12/28 02:53:44;;;;;;;10.05;2.90;;;;;;;5.85;51.90;99884.72;4349803;33;20106;-91
2022/12/28 02:56:26;;;;;;;8.57;3.05;;;;;;;5.55;52.58;99888.72;4349793;33;20248;-91
2022/12/28 02:59:14;;;;;;;9.25;2.67;;;;;;;5.77;52.21;99891.81;4336549;33;20467;-92
2022/12/28 03:02:07;;;;;;;8.25;2.47;;;;;;;5.93;51.89;99889.81;4349701;33;20243;-91
2022/12/28 03:04:44;;;;;;;11.82;2.85;;;;;;;5.96;51.89;99891.53;4349878;33;20083;-91
2022/12/28 03:10:25;;;;;;;10.85;2.65;;;;;;;5.96;52.05;99874.09;4338428;33;20162;-91
2022/12/28 03:12:58;;;;;;;8.27;2.40;;;;;;;5.89;52.26;99882.88;4348452;33;20436;-91
2022/12/28 03:15:29;;;;;;;8.15;2.12;;;;;;;6.11;51.72;99872.94;4348547;33;20114;-92
2022/12/28 03:31:53;;;;;;;7.62;2.22;;;;;;;6.30;51.65;99860.38;4338055;33;20125;-90
2022/12/28 03:34:18;;;;;;;8.27;2.50;;;;;;;6.35;51.48;99852.41;4349459;33;20091;-90
2022/12/28 03:37:09;;;;;;;6.82;2.10;;;;;;;6.37;51.47;99858.47;4348222;33;20099;-90
2022/12/28 03:39:49;;;;;;;8.20;2.15;;;;;;;6.37;51.57;99850.63;4349723;33;20103;-90
2022/12/28 03:45:11;;;;;;;6.03;1.87;;;;;;;6.37;51.56;99848.87;4349373;33;20146;-88
2022/12/28 03:47:37;;;;;;;6.93;1.70;;;;;;;6.35;51.70;99836.72;4349202;33;20110;-87
2022/12/28 03:50:04;;;;;;;8.82;1.98;;;;;;;6.38;51.70;99832.28;4335921;33;20133;-88
2022/12/28 03:52:31;;;;;;;4.95;1.83;;;;;;;6.35;51.69;99837.56;4349220;33;20094;-88
2022/12/28 03:54:56;;;;;;;9.10;1.67;;;;;;;6.36;51.74;99831.47;4335731;33;20099;-88
2022/12/28 03:57:22;;;;;;;5.20;1.67;;;;;;;6.39;51.74;99828.75;4349029;33;20106;-87
2022/12/28 03:59:47;;;;;;;6.00;1.45;;;;;;;6.38;51.77;99827.06;4347915;33;20111;-87
2022/12/28 04:02:13;;;;;;;5.82;1.52;;;;;;;6.39;51.78;99818.28;4348906;33;20087;-88
2022/12/28 04:04:38;;;;;;;6.70;1.52;;;;;;;6.38;51.76;99807.88;4349006;33;20084;-91
2022/12/28 04:07:03;;;;;;;4.55;1.20;;;;;;;6.40;51.71;99803.47;4348983;33;20460;-91
2022/12/28 04:09:31;;;;;;;5.90;1.50;;;;;;;6.42;51.64;99799.06;4348980;33;20150;-91
2022/12/28 04:11:57;;;;;;;5.37;1.30;;;;;;;6.41;51.53;99799.94;4335746;33;20134;-91
2022/12/28 04:14:22;;;;;;;5.87;1.40;;;;;;;6.44;51.43;99805.97;4335559;33;20092;-91
2022/12/28 04:16:48;;;;;;;4.60;1.20;;;;;;;6.44;51.36;99795.50;4335530;33;20095;-90
2022/12/28 04:19:13;;;;;;;4.80;1.20;;;;;;;6.43;51.37;99804.28;4348628;33;20123;-90
2022/12/28 04:21:39;;;;;;;5.07;1.50;;;;;;;6.43;51.32;99798.16;4348778;33;20087;-94
2022/12/28 04:24:04;;;;;;;6.95;1.10;;;;;;;6.47;51.29;99794.56;4348539;33;20357;-93
2022/12/28 04:26:30;;;;;;;5.37;1.10;;;;;;;6.46;51.20;99785.88;4347591;33;20109;-94
2022/12/28 04:29:00;;;;;;;5.05;1.15;;;;;;;6.48;51.08;99786.69;4348789;33;20157;-94
2022/12/28 04:31:27;;;;;;;5.68;1.30;;;;;;;6.48;51.10;99789.31;4348669;33;20091;-94
2022/12/28 04:33:52;;;;;;;4.75;1.27;;;;;;;6.52;50.88;99791.88;4347451;33;20118;-88
2022/12/28 04:36:17;;;;;;;4.95;1.15;;;;;;;6.43;50.86;99779.81;4348970;33;20084;-87
2022/12/28 04:38:43;;;;;;;3.50;1.20;;;;;;;6.45;50.77;99786.78;4350587;33;20119;-87
2022/12/28 04:41:09;;;;;;;4.97;1.20;;;;;;;6.40;50.79;99780.75;4349493;33;20115;-87
2022/12/28 04:43:35;;;;;;;5.03;1.08;;;;;;;6.35;50.92;99779.13;4350499;33;20507;-87
2022/12/28 04:46:03;;;;;;;7.30;2.22;;;;;;;6.34;50.83;99794.00;4337236;33;20135;-87
2022/12/28 04:48:29;;;;;;;11.02;2.67;;;;;;;6.32;50.70;99794.91;4349494;33;20452;-87
2022/12/28 04:50:55;;;;;;;8.77;2.47;;;;;;;6.20;50.86;99781.19;4350834;33;20091;-88
2022/12/28 04:53:21;;;;;;;9.98;2.72;;;;;;;6.18;50.95;99792.56;4349763;33;20361;-89
2022/12/28 04:55:46;;;;;;;11.02;3.08;;;;;;;5.78;51.87;99788.13;4350656;33;20427;-88
2022/12/28 04:58:12;;;;;;;9.77;3.40;;;;;;;5.36;52.80;99798.44;4350666;33;20122;-89
2022/12/28 05:00:37;;;;;;;9.98;3.00;;;;;;;5.27;53.61;99804.66;4350727;33;20117;-89
2022/12/28 05:03:03;;;;;;;10.25;3.17;;;;;;;5.53;52.89;99801.63;4350676;33;20101;-90
2022/12/28 05:05:28;;;;;;;9.20;2.80;;;;;;;5.59;52.84;99806.75;4350500;33;20104;-90
2022/12/28 05:07:54;;;;;;;9.35;2.95;;;;;;;5.57;52.87;99815.50;4350671;33;20091;-89
2022/12/28 05:10:19;;;;;;;10.32;3.37;;;;;;;5.48;52.81;99819.13;4349550;33;20146;-89
2022/12/28 05:12:45;;;;;;;10.25;3.37;;;;;;;5.18;53.63;99815.28;4350671;33;20131;-90
2022/12/28 05:15:11;;;;;;;11.20;3.00;;;;;;;5.31;53.34;99812.44;4350639;33;20142;-90
2022/12/28 05:17:36;;;;;;;9.43;3.05;;;;;;;5.40;53.23;99803.56;4337147;33;20103;-90
2022/12/28 05:20:03;;;;;;;8.15;2.08;;;;;;;5.26;53.71;99809.03;4350652;33;20162;-90
2022/12/28 05:22:28;;;;;;;7.33;2.23;;;;;;;5.35;53.46;99808.03;4350615;33;20096;-90
2022/12/28 05:24:54;;;;;;;9.45;1.98;;;;;;;5.21;53.84;99810.00;4350582;33;20079;-90
2022/12/28 05:27:19;;;;;;;6.75;2.22;;;;;;;5.33;53.50;99809.78;4349424;33;20508;-90
2022/12/28 05:29:45;;;;;;;7.90;1.92;;;;;;;5.38;53.31;99813.19;4350536;33;20490;-90
2022/12/28 05:32:10;;;;;;;10.50;2.60;;;;;;;5.34;53.53;99815.91;4350438;33;20127;-90
2022/12/28 05:34:35;;;;;;;11.70;3.37;;;;;;;5.34;53.69;99805.44;4337091;33;20091;-90
2022/12/28 05:37:01;;;;;;;10.70;3.00;;;;;;;5.30;53.85;99797.66;4350431;33;20092;-90
2022/12/28 05:39:26;;;;;;;8.48;2.50;;;;;;;5.38;53.77;99796.66;4350547;33;20118;-90
2022/12/28 05:41:52;;;;;;;9.57;2.60;;;;;;;5.24;54.33;99800.38;4336878;33;20390;-90
2022/12/28 05:44:17;;;;;;;8.80;2.20;;;;;;;5.26;54.36;99792.50;4350482;33;20087;-90
2022/12/28 05:46:42;;;;;;;10.38;2.10;;;;;;;5.41;54.04;99792.25;4336930;33;20107;-92
2022/12/28 05:49:08;;;;;;;8.10;2.20;;;;;;;5.50;53.94;99784.25;4349270;33;20244;-90
2022/12/28 05:51:34;;;;;;;8.18;1.80;;;;;;;5.43;54.02;99785.25;4350404;33;20106;-90
2022/12/28 05:54:03;;;;;;;7.30;1.70;;;;;;;5.31;54.66;99793.28;4350222;33;20071;-90
2022/12/28 05:56:29;;;;;;;5.68;1.52;;;;;;;5.54;54.02;99802.47;4337334;33;20452;-90
2022/12/28 05:58:56;;;;;;;8.60;1.50;;;;;;;5.65;53.74;99800.53;4350073;33;20084;-90
2022/12/28 06:01:24;;;;;;;6.97;1.42;;;;;;;5.76;53.50;99802.97;4336621;33;20103;-90
2022/12/28 06:04:07;;;;;;;5.45;1.40;;;;;;;5.68;53.58;99806.56;4350153;33;20083;-90
2022/12/28 06:06:33;;;;;;;8.20;1.50;;;;;;;5.65;53.68;99803.16;4336843;33;20112;-90
2022/12/28 06:09:00;;;;;;;7.82;2.25;;;;;;;5.85;53.19;99803.66;4336946;33;20186;-89
2022/12/28 06:11:26;;;;;;;6.05;1.50;;;;;;;5.93;52.98;99806.12;4350329;33;20156;-90
2022/12/28 06:13:52;;;;;;;4.10;1.33;;;;;;;5.98;52.77;99796.44;4336717;33;20114;-90
2022/12/28 06:16:21;;;;;;;4.78;1.10;;;;;;;6.07;52.30;99805.88;4350195;33;20091;-89
2022/12/28 06:18:47;;;;;;;5.37;1.20;;;;;;;6.11;52.16;99802.31;4349940;33;20167;-89
2022/12/28 06:21:22;;;;;;;5.78;1.52;;;;;;;6.15;51.98;99813.59;4350105;33;20087;-87
2022/12/28 06:23:48;;;;;;;6.22;1.45;;;;;;;6.16;51.95;99812.66;4349845;33;20083;-89
2022/12/28 06:26:16;;;;;;;6.15;1.70;;;;;;;6.19;51.95;99818.72;4350053;33;20134;-88
2022/12/28 06:28:42;;;;;;;;;;;;;;;6.14;52.00;99812.69;4350301;33;20146;-89
2022/12/28 06:31:11;;;;;;;7.85;1.98;;;;;;;6.10;52.17;99809.31;4336462;33;19975;-88
2022/12/28 06:33:36;;;;;;;6.87;1.77;;;;;;;6.09;52.18;99811.94;4349845;33;20163;-89
2022/12/28 06:36:02;;;;;;;8.20;2.15;;;;;;;6.14;52.16;99809.22;4349956;33;20075;-89
2022/12/28 06:38:31;;;;;;;7.97;2.03;;;;;;;6.15;52.10;99808.34;4336141;33;20122;-89
2022/12/28 06:41:07;;;;;;;9.02;1.98;;;;;;;6.06;52.16;99812.84;4336701;33;20142;-86
2022/12/28 06:43:34;;;;;;;6.78;1.90;;;;;;;6.16;52.05;99818.78;4336506;33;20436;-86
2022/12/28 06:46:00;;;;;;;7.12;1.80;;;;;;;6.16;52.05;99813.56;4336325;33;20178;-86
2022/12/28 06:48:25;;;;;;;8.55;1.90;;;;;;;6.25;52.01;99812.50;4348708;33;20474;-86
2022/12/28 06:51:02;;;;;;;6.00;1.40;;;;;;;6.30;51.93;99808.03;4349791;33;20494;-84
2022/12/28 06:53:30;;;;;;;4.40;1.20;;;;;;;6.36;51.62;99810.53;4348647;33;20106;-84
2022/12/28 06:56:03;;;;;;;5.60;1.65;;;;;;;6.20;52.00;99815.22;4336317;33;20234;-87
2022/12/28 06:58:29;;;;;;;8.57;1.90;;;;;;;6.30;51.70;99811.50;4348528;33;20244;-88
2022/12/28 07:00:55;;;;;;;7.68;2.15;;;;;;;6.43;51.70;99816.47;4335852;33;20116;-85
2022/12/28 07:03:22;;;;;;;9.90;2.87;;;;;;;6.43;51.61;99819.97;4336322;33;20138;-85
2022/12/28 07:05:48;;;;;;;8.82;2.47;;;;;;;6.46;51.44;99812.03;4348686;33;20092;-84
2022/12/28 07:08:14;;;;;;;9.55;3.12;;;;;;;6.45;51.43;99815.56;4349577;33;20138;-84
2022/12/28 07:10:40;;;;;;;10.57;3.03;;;;;;;6.46;51.51;99819.88;4336247;33;20079;-84
2022/12/28 07:13:05;;;;;;;10.57;2.70;;;;;;;6.49;51.50;99819.84;4336201;33;20166;-86
2022/12/28 07:15:31;;;;;;;10.75;3.80;;;;;;;6.51;51.38;99819.81;4349617;33;20235;-87
2022/12/28 07:17:59;;;;;;;12.15;3.67;;;;;;;6.58;51.31;99817.91;4349321;33;20084;-86
2022/12/28 07:20:25;;;;;;;11.25;3.45;;;;;;;6.55;50.89;99821.47;4348472;33;20514;-87
2022/12/28 07:22:50;;;;;;;10.68;3.62;;;;;;;6.56;50.75;99809.22;4349569;33;20123;-87
2022/12/28 07:25:16;;;;;;;15.23;5.40;;;;;;;6.45;50.83;99812.06;4348339;33;20131;-83
2022/12/28 07:27:41;;;;;;;13.82;5.03;;;;;;;6.32;51.07;99810.59;4335854;33;20105;-83
2022/12/28 07:30:07;;;;;;;13.68;5.07;;;;;;;6.46;50.73;99808.56;4349563;33;20103;-84
2022/12/28 07:32:36;;;;;;;14.55;5.05;;;;;;;6.38;50.85;99803.50;4348183;33;20079;-83
2022/12/28 07:35:01;;;;;;;13.80;5.32;;;;;;;6.38;50.91;99810.50;4349357;33;20538;-87
2022/12/28 07:37:26;;;;;;;13.23;4.93;;;;;;;6.39;50.69;99801.72;4323915;33;20131;-87
2022/12/28 07:39:52;;;;;;;12.80;5.03;;;;;;;6.13;51.04;99808.38;4349506;33;20080;-87
2022/12/28 07:42:17;;;;;;;13.48;5.47;;;;;;;6.14;51.00;99804.00;4348402;33;20079;-88
2022/12/28 07:44:44;;;;;;;13.75;5.28;;;;;;;5.59;52.38;99809.34;4349465;33;20087;-87
2022/12/28 07:47:10;;;;;;;15.63;5.22;;;;;;;5.75;52.09;99809.06;4349527;33;20083;-87
2022/12/28 07:49:36;;;;;;;11.12;4.75;;;;;;;5.81;52.25;99822.03;4349406;33;20467;-88
2022/12/28 07:52:01;;;;;;;11.35;4.53;;;;;;;5.89;52.14;99818.41;4348234;33;20114;-88
2022/12/28 07:54:26;;;;;;;14.48;5.50;;;;;;;6.06;51.73;99817.22;4349515;33;20092;-88
2022/12/28 07:56:52;;;;;;;14.73;5.53;;;;;;;5.91;51.89;99821.00;4348205;33;20142;-88
2022/12/28 07:59:17;;;;;;;17.70;6.32;;;;;;;5.84;52.22;99816.75;4349166;33;20076;-87
2022/12/28 08:01:42;;;;;;;15.73;6.10;;;;;;;5.91;52.04;99816.63;4348205;33;20138;-87
2022/12/28 08:04:12;;;;;;;15.20;5.95;;;;;;;5.87;52.18;99819.28;4349043;33;20096;-87
2022/12/28 08:06:39;;;;;;;15.13;6.12;;;;;;;5.98;52.02;99820.00;4335872;33;20103;-85
2022/12/28 08:09:06;;;;;;;15.82;5.53;;;;;;;6.01;52.02;99825.19;4349258;33;20495;-87
2022/12/28 08:11:34;;;;;;;16.77;6.35;;;;;;;6.07;52.17;99826.81;4336312;33;20139;-87
2022/12/28 08:14:00;;;;;;;15.73;6.47;;;;;;;6.13;52.06;99826.69;4351075;33;20260;-88
2022/12/28 08:16:27;;;;;;;15.32;6.78;;;;;;;6.04;52.15;99817.25;4337595;33;20107;-86
2022/12/28 08:18:53;;;;;;;17.02;6.80;;;;;;;6.22;51.98;99821.28;4350804;33;20536;-87
2022/12/28 08:21:22;;;;;;;17.12;6.65;;;;;;;6.35;51.89;99816.63;4349598;33;20082;-86
2022/12/28 08:23:48;;;;;;;15.27;6.57;;;;;;;6.38;51.73;99823.56;4337073;33;20155;-87
2022/12/28 08:26:18;;;;;;;17.95;7.15;;;;;;;6.10;51.86;99821.50;4350656;33;20463;-86
2022/12/28 08:28:45;;;;;;;14.32;6.45;;;;;;;6.35;51.45;99808.78;4337325;33;20139;-87
2022/12/28 08:31:13;;;;;;;16.48;6.55;;;;;;;6.41;51.54;99811.28;4350566;33;20079;-87
2022/12/28 08:33:39;;;;;;;17.73;7.37;;;;;;;6.45;51.60;99812.94;4350745;33;20088;-86
2022/12/28 08:36:05;;;;;;;17.23;7.70;;;;;;;6.61;51.65;99807.38;4350687;33;20113;-86
2022/12/28 08:38:31;;;;;;;17.58;7.25;;;;;;;6.68;51.54;99811.56;4349374;33;20083;-87
2022/12/28 08:40:58;;;;;;;22.13;8.73;;;;;;;6.84;50.95;99812.09;4349600;33;20087;-86
2022/12/28 08:43:27;;;;;;;18.90;8.50;;;;;;;6.46;51.10;99819.03;4337163;33;20096;-86
2022/12/28 08:45:57;;;;;;;19.75;9.63;;;;;;;6.81;50.79;99817.41;4350598;33;20157;-87
2022/12/28 08:48:22;;;;;;;23.23;9.55;;;;;;;6.91;50.44;99811.03;4337382;33;20109;-87
2022/12/28 08:50:48;;;;;;;17.48;8.63;;;;;;;6.99;50.34;99809.13;4337407;33;20107;-87
2022/12/28 08:53:13;;;;;;;17.77;9.10;;;;;;;7.01;50.46;99815.19;4350778;33;20087;-88
2022/12/28 08:55:39;;;;;;;19.62;9.68;;;;;;;7.12;50.21;99812.31;4350764;33;20125;-88
2022/12/28 08:58:04;;;;;;;20.80;10.27;;;;;;;6.93;50.49;99819.72;4337222;33;20447;-88
2022/12/28 09:00:29;;;;;;;22.27;10.25;;;;;;;7.07;50.12;99820.28;4347247;33;112696;-88
2022/12/28 09:02:58;;;;;;;24.55;10.65;;;;;;;7.17;49.95;99812.22;4350679;33;20569;-88
2022/12/28 09:05:23;;;;;;;19.58;10.20;;;;;;;7.15;49.97;99812.25;4349527;33;20095;-88
2022/12/28 09:07:50;;;;;;;20.35;10.75;;;;;;;7.26;49.91;99814.59;4350731;33;20376;-87
2022/12/28 09:10:16;;;;;;;22.37;11.70;;;;;;;7.26;49.80;99812.84;4336987;33;20095;-87
2022/12/28 09:12:41;;;;;;;25.52;12.10;;;;;;;7.43;49.68;99806.31;4336956;33;20096;-88
2022/12/28 09:15:08;;;;;;;22.48;10.18;;;;;;;7.10;50.67;99808.84;4349202;33;20260;-84
2022/12/28 09:17:33;;;;;;;22.65;10.52;;;;;;;7.55;49.57;99805.13;4350319;33;20151;-85
2022/12/28 09:19:58;;;;;;;21.17;10.65;;;;;;;7.73;49.21;99793.31;4349238;33;20416;-85
2022/12/28 09:22:24;;;;;;;22.77;10.60;;;;;;;7.91;48.71;99786.69;4350201;33;20452;-85
2022/12/28 09:24:49;;;;;;;23.95;10.63;;;;;;;8.04;48.40;99786.31;4336615;33;20444;-92
2022/12/28 09:27:15;;;;;;;23.08;11.35;;;;;;;8.07;48.16;99762.63;4329770;33;20124;-89
2022/12/28 09:29:40;;;;;;;18.80;9.60;;;;;;;8.07;47.88;99778.38;4332255;33;20118;-88
2022/12/28 09:32:05;;;;;;;23.60;11.27;;;;;;;8.23;47.64;99776.16;4324341;33;20162;-88
2022/12/28 09:34:31;;;;;;;27.87;11.82;;;;;;;8.37;47.21;99780.13;4334834;33;20421;-87
2022/12/28 09:36:56;;;;;;;25.58;12.60;;;;;;;8.43;46.96;99764.22;4333230;33;20103;-87
2022/12/28 09:39:23;;;;;;;29.02;11.95;;;;;;;8.35;47.00;99764.41;4318225;33;20096;-87
2022/12/28 09:41:48;;;;;;;22.77;11.60;;;;;;;8.41;46.97;99759.00;4319121;33;20151;-88
2022/12/28 09:44:29;;;;;;;21.15;9.73;;;;;;;8.43;46.86;99758.97;4321906;33;20550;-88
2022/12/28 09:47:07;;;;;;;19.92;9.65;;;;;;;8.39;47.16;99760.78;4318950;33;20129;-90
2022/12/28 09:49:41;;;;;;;21.12;8.93;;;;;;;8.40;46.77;99766.91;4332972;33;20098;-91
2022/12/28 09:52:13;;;;;;;23.50;9.85;;;;;;;8.45;46.63;99758.00;4319213;33;20170;-90
2022/12/28 09:54:38;;;;;;;17.83;8.18;;;;;;;8.32;46.77;99758.41;4331970;33;20107;-88
2022/12/28 09:57:04;;;;;;;16.48;7.35;;;;;;;8.38;46.26;99743.34;4319193;33;20134;-90
2022/12/28 09:59:31;;;;;;;16.65;6.97;;;;;;;8.53;45.85;99734.13;4332218;33;20428;-89
2022/12/28 10:02:00;;;;;;;19.50;6.85;;;;;;;8.62;45.82;99727.75;4331887;33;20171;-89
2022/12/28 10:04:25;;;;;;;16.17;5.82;;;;;;;8.79;45.63;99725.44;4318724;33;20100;-90
2022/12/28 10:06:51;;;;;;;13.77;5.50;;;;;;;8.85;44.96;99708.62;4332840;33;20764;-91
2022/12/28 10:09:30;;;;;;;12.98;4.50;;;;;;;8.96;44.41;99703.87;4318854;33;20095;-91
2022/12/28 10:11:55;;;;;;;13.15;5.45;;;;;;;9.05;43.69;99715.84;4333829;33;20084;-87
2022/12/28 10:14:32;;;;;;;10.98;3.90;;;;;;;8.98;43.58;99709.06;4332680;33;20117;-89
2022/12/28 10:16:57;;;;;;;9.82;2.95;;;;;;;8.78;43.83;99710.59;4320583;33;20162;-89
2022/12/28 10:19:26;;;;;;;10.10;3.05;;;;;;;8.75;43.59;99700.19;4332725;33;20118;-88
2022/12/28 10:22:01;;;;;;;7.82;2.17;;;;;;;8.95;41.71;99698.69;4322166;33;20187;-86
2022/12/28 10:24:27;;;;;;;8.85;2.03;;;;;;;8.96;41.93;99701.25;4319531;33;20473;-88
2022/12/28 10:26:56;;;;;;;9.77;2.42;;;;;;;8.55;42.34;99713.94;4331781;33;20091;-89
2022/12/28 10:29:23;;;;;;;10.13;2.62;;;;;;;8.98;41.50;99709.94;4319437;33;20110;-84
2022/12/28 10:31:55;;;;;;;9.48;2.05;;;;;;;9.12;41.26;99706.84;4330443;33;20126;-91
2022/12/28 10:34:21;;;;;;;8.50;2.37;;;;;;;8.83;41.72;99710.44;4331930;33;20100;-90
2022/12/28 10:36:47;;;;;;;7.78;2.22;;;;;;;8.76;41.10;99711.56;4332763;33;20083;-89
2022/12/28 10:39:22;;;;;;;11.05;2.90;;;;;;;9.14;40.84;99707.66;4333097;33;20475;-91
2022/12/28 10:41:48;;;;;;;8.73;2.25;;;;;;;9.22;41.02;99707.41;4332182;33;20448;-92
2022/12/28 10:44:20;;;;;;;7.95;2.58;;;;;;;9.35;40.33;99694.66;4318827;33;20448;-89
2022/12/28 10:46:53;;;;;;;8.73;2.62;;;;;;;9.39;40.49;99697.16;4319580;33;20096;-89
2022/12/28 10:49:19;;;;;;;7.85;2.35;;;;;;;9.75;39.95;99698.50;4319315;33;20084;-83
2022/12/28 10:52:02;;;;;;;8.55;2.10;;;;;;;8.95;41.32;99699.53;4330789;33;20130;-89
2022/12/28 10:54:31;;;;;;;9.57;2.33;;;;;;;9.20;41.22;99704.81;4319041;33;20621;-86
2022/12/28 10:56:56;;;;;;;5.40;1.60;;;;;;;9.51;40.52;99697.63;4320967;33;20466;-87
2022/12/28 10:59:30;;;;;;;9.50;2.40;;;;;;;9.00;41.26;99694.09;4331562;33;20124;-90
2022/12/28 11:02:23;;;;;;;9.30;2.90;;;;;;;9.18;41.51;99700.53;4332096;33;20122;-86
2022/12/28 11:04:57;;;;;;;10.57;2.78;;;;;;;9.62;40.80;99708.62;4318737;33;20080;-85
2022/12/28 11:07:34;;;;;;;11.75;3.28;;;;;;;9.64;40.66;99707.66;4317948;33;20114;-85
2022/12/28 11:10:32;;;;;;;10.93;3.20;;;;;;;9.75;40.67;99701.13;4319332;33;20118;-86
2022/12/28 11:12:59;;;;;;;11.20;3.75;;;;;;;8.72;42.16;99697.66;4274006;33;20101;-86
2022/12/28 11:15:28;;;;;;;10.87;3.43;;;;;;;9.39;41.55;99691.03;4274546;33;20105;-86
2022/12/28 11:17:58;;;;;;;11.18;3.10;;;;;;;9.00;42.21;99681.84;4273277;33;20166;-85
2022/12/28 11:20:33;;;;;;;10.23;3.15;;;;;;;9.12;41.54;99688.44;4265388;33;20092;-87
2022/12/28 11:22:59;;;;;;;9.73;2.95;;;;;;;9.38;41.35;99694.56;4271219;33;20192;-88
2022/12/28 11:25:33;;;;;;;8.77;2.92;;;;;;;9.92;40.59;99684.72;4265212;33;20462;-84
2022/12/28 11:27:58;;;;;;;10.60;3.30;;;;;;;9.77;40.74;99681.78;4274947;33;20088;-83
2022/12/28 11:30:24;;;;;;;11.60;3.40;;;;;;;9.92;40.58;99685.59;4262332;33;20143;-83
2022/12/28 11:32:53;;;;;;;9.57;3.15;;;;;;;10.20;39.76;99671.38;4285423;33;20171;-83
2022/12/28 11:35:25;;;;;;;9.65;3.00;;;;;;;10.28;39.36;99668.47;4285462;33;20113;-83
2022/12/28 11:37:53;;;;;;;10.80;3.30;;;;;;;10.14;39.93;99661.94;4272739;33;20100;-85
2022/12/28 11:40:43;;;;;;;11.07;3.62;;;;;;;10.31;39.06;99660.44;4273870;33;20107;-83
2022/12/28 11:43:31;;;;;;;10.88;3.42;;;;;;;10.61;38.54;99656.59;4271418;33;20132;-82
2022/12/28 11:45:58;;;;;;;13.00;3.63;;;;;;;10.65;38.21;99656.47;4279423;33;20142;-84
2022/12/28 11:48:42;;;;;;;13.10;4.40;;;;;;;10.48;38.35;99644.81;4287095;33;20123;-83
2022/12/28 11:51:21;;;;;;;12.68;4.20;;;;;;;10.28;38.71;99647.38;4321488;33;20091;-82
2022/12/28 11:53:46;;;;;;;11.90;4.12;;;;;;;10.59;38.43;99645.25;4330734;33;20139;-83
2022/12/28 11:56:16;;;;;;;13.82;4.75;;;;;;;10.61;38.60;99638.16;4327622;33;20111;-83
2022/12/28 11:58:45;;;;;;;12.82;4.53;;;;;;;10.54;38.73;99634.03;4327982;33;20163;-81
2022/12/28 12:01:25;;;;;;;11.15;4.15;;;;;;;10.28;39.06;99621.06;4329500;33;20075;-84
2022/12/28 12:03:57;;;;;;;14.43;5.10;;;;;;;10.42;39.20;99624.00;4328747;33;20115;-84
2022/12/28 12:06:40;;;;;;;12.32;5.18;;;;;;;10.50;38.76;99619.28;4328817;33;20135;-85
2022/12/28 12:09:38;;;;;;;14.77;6.05;;;;;;;10.17;39.30;99617.06;4329356;33;20064;-84